Conley, Georgia
Current Conditions -  °F | °C
As of 9:52 PM on Friday 19 Dec 2014 (Local Time) from KATL Reporting Station
Light Rain Light Rain  
Wind Chill: 41°   Ceiling: 7000
Heat Index: 45°   Visibility: 10mi
Dew Point: 32°   Wind: 7mph
Humidity: 60%   Direction: 310°NW
Pressure: 30.16"   Gusts: NA
Location:  33.64°N, 84.32°W
Report Text: KATL 200252Z 31006KT 10SM -RA FEW055 BKN070 OVC100 07/00 A3016 RMK AO2 RAB48 SLP216 P0000 60000 T00720000 53008
Loading
Personal Weather Stations






























Interactive Weather Map New forecast layout! Learn more

10-Day Weather Forecast

Advertisements
Track Severe Weather on mobile